sensor_id;sensor_type;location;lat;lon;timestamp;temperature;humidity
7016;DHT22;3548;48.402;9.990;2022-07-05T00:00:32;18.30;99.90
7016;DHT22;3548;48.402;9.990;2022-07-05T00:02:57;18.30;99.90
7016;DHT22;3548;48.402;9.990;2022-07-05T00:05:23;18.30;99.90
7016;DHT22;3548;48.402;9.990;2022-07-05T00:07:48;18.30;99.90
7016;DHT22;3548;48.402;9.990;2022-07-05T00:10:14;18.30;99.90
7016;DHT22;3548;48.402;9.990;2022-07-05T00:12:39;18.30;99.90
7016;DHT22;3548;48.402;9.990;2022-07-05T00:15:05;18.30;99.90
7016;DHT22;3548;48.402;9.990;2022-07-05T00:17:31;18.30;99.90
7016;DHT22;3548;48.402;9.990;2022-07-05T00:19:56;17.60;99.90
7016;DHT22;3548;48.402;9.990;2022-07-05T00:22:22;18.20;99.90
7016;DHT22;3548;48.402;9.990;2022-07-05T00:24:48;18.20;99.90
7016;DHT22;3548;48.402;9.990;2022-07-05T00:27:13;18.20;99.90
7016;DHT22;3548;48.402;9.990;2022-07-05T00:29:39;18.20;99.90
7016;DHT22;3548;48.402;9.990;2022-07-05T00:32:04;18.20;99.90
7016;DHT22;3548;48.402;9.990;2022-07-05T00:34:30;18.20;99.90
7016;DHT22;3548;48.402;9.990;2022-07-05T00:36:56;18.10;99.90
7016;DHT22;3548;48.402;9.990;2022-07-05T00:39:21;18.10;99.90
7016;DHT22;3548;48.402;9.990;2022-07-05T00:41:47;18.10;99.90
7016;DHT22;3548;48.402;9.990;2022-07-05T00:44:12;18.00;99.90
7016;DHT22;3548;48.402;9.990;2022-07-05T00:46:41;18.00;99.90
7016;DHT22;3548;48.402;9.990;2022-07-05T00:49:07;18.00;99.90
7016;DHT22;3548;48.402;9.990;2022-07-05T00:51:34;18.00;99.90
7016;DHT22;3548;48.402;9.990;2022-07-05T00:54:01;17.90;99.90
7016;DHT22;3548;48.402;9.990;2022-07-05T00:56:27;17.90;99.90
7016;DHT22;3548;48.402;9.990;2022-07-05T00:58:52;17.90;99.90
7016;DHT22;3548;48.402;9.990;2022-07-05T01:01:19;17.90;99.90
7016;DHT22;3548;48.402;9.990;2022-07-05T01:03:45;17.90;99.90
7016;DHT22;3548;48.402;9.990;2022-07-05T01:06:12;17.90;99.90
7016;DHT22;3548;48.402;9.990;2022-07-05T01:08:39;17.80;99.90
7016;DHT22;3548;48.402;9.990;2022-07-05T01:11:06;17.80;99.90
7016;DHT22;3548;48.402;9.990;2022-07-05T01:13:32;17.80;99.90
7016;DHT22;3548;48.402;9.990;2022-07-05T01:15:59;17.80;99.90
7016;DHT22;3548;48.402;9.990;2022-07-05T01:18:24;17.70;99.90
7016;DHT22;3548;48.402;9.990;2022-07-05T01:20:50;17.70;99.90
7016;DHT22;3548;48.402;9.990;2022-07-05T01:23:17;17.70;99.90
7016;DHT22;3548;48.402;9.990;2022-07-05T01:25:45;17.70;99.90
7016;DHT22;3548;48.402;9.990;2022-07-05T01:28:11;17.60;99.90
7016;DHT22;3548;48.402;9.990;2022-07-05T01:30:39;17.60;99.90
7016;DHT22;3548;48.402;9.990;2022-07-05T01:33:06;17.60;99.90
7016;DHT22;3548;48.402;9.990;2022-07-05T01:35:32;17.50;99.90
7016;DHT22;3548;48.402;9.990;2022-07-05T01:37:58;17.50;99.90
7016;DHT22;3548;48.402;9.990;2022-07-05T01:40:23;17.50;99.90
7016;DHT22;3548;48.402;9.990;2022-07-05T01:42:49;17.30;99.90
7016;DHT22;3548;48.402;9.990;2022-07-05T01:45:15;17.30;99.90
7016;DHT22;3548;48.402;9.990;2022-07-05T01:47:59;17.20;99.90
7016;DHT22;3548;48.402;9.990;2022-07-05T01:50:28;17.10;99.90
7016;DHT22;3548;48.402;9.990;2022-07-05T01:52:56;17.10;99.90
7016;DHT22;3548;48.402;9.990;2022-07-05T01:55:24;17.10;99.90
7016;DHT22;3548;48.402;9.990;2022-07-05T01:57:49;17.00;99.90
7016;DHT22;3548;48.402;9.990;2022-07-05T02:00:15;16.90;99.90
7016;DHT22;3548;48.402;9.990;2022-07-05T02:02:41;16.90;99.90
7016;DHT22;3548;48.402;9.990;2022-07-05T02:05:07;16.90;99.90
7016;DHT22;3548;48.402;9.990;2022-07-05T02:07:33;16.80;99.90
7016;DHT22;3548;48.402;9.990;2022-07-05T02:09:58;16.80;99.90
7016;DHT22;3548;48.402;9.990;2022-07-05T02:12:24;16.80;99.90
7016;DHT22;3548;48.402;9.990;2022-07-05T02:14:49;16.80;99.90
7016;DHT22;3548;48.402;9.990;2022-07-05T02:17:15;16.80;99.90
7016;DHT22;3548;48.402;9.990;2022-07-05T02:19:40;16.70;99.90
7016;DHT22;3548;48.402;9.990;2022-07-05T02:22:06;16.70;99.90
7016;DHT22;3548;48.402;9.990;2022-07-05T02:24:33;16.60;99.90
7016;DHT22;3548;48.402;9.990;2022-07-05T02:26:58;16.60;99.90
7016;DHT22;3548;48.402;9.990;2022-07-05T02:29:24;16.50;99.90
7016;DHT22;3548;48.402;9.990;2022-07-05T02:31:50;16.50;99.90
7016;DHT22;3548;48.402;9.990;2022-07-05T02:34:15;16.50;99.90
7016;DHT22;3548;48.402;9.990;2022-07-05T02:36:41;16.50;99.90
7016;DHT22;3548;48.402;9.990;2022-07-05T02:39:07;16.40;99.90
7016;DHT22;3548;48.402;9.990;2022-07-05T02:41:32;16.40;99.90
7016;DHT22;3548;48.402;9.990;2022-07-05T02:43:58;16.30;99.90
7016;DHT22;3548;48.402;9.990;2022-07-05T02:46:23;16.30;99.90
7016;DHT22;3548;48.402;9.990;2022-07-05T02:48:50;16.30;99.90
7016;DHT22;3548;48.402;9.990;2022-07-05T02:51:16;16.20;99.90
7016;DHT22;3548;48.402;9.990;2022-07-05T02:53:42;16.20;99.90
7016;DHT22;3548;48.402;9.990;2022-07-05T02:56:08;16.10;99.90
7016;DHT22;3548;48.402;9.990;2022-07-05T02:58:33;16.10;99.90
7016;DHT22;3548;48.402;9.990;2022-07-05T03:00:59;16.00;99.90
7016;DHT22;3548;48.402;9.990;2022-07-05T03:03:24;16.00;99.90
7016;DHT22;3548;48.402;9.990;2022-07-05T03:05:50;16.00;99.90
7016;DHT22;3548;48.402;9.990;2022-07-05T03:08:16;16.00;99.90
7016;DHT22;3548;48.402;9.990;2022-07-05T03:10:41;16.00;99.90
7016;DHT22;3548;48.402;9.990;2022-07-05T03:13:07;15.90;99.90
7016;DHT22;3548;48.402;9.990;2022-07-05T03:15:33;15.90;99.90
7016;DHT22;3548;48.402;9.990;2022-07-05T03:17:58;15.90;99.90
7016;DHT22;3548;48.402;9.990;2022-07-05T03:20:24;15.90;99.90
7016;DHT22;3548;48.402;9.990;2022-07-05T03:22:49;16.00;99.90
7016;DHT22;3548;48.402;9.990;2022-07-05T03:25:15;16.00;99.90
7016;DHT22;3548;48.402;9.990;2022-07-05T03:27:41;16.00;99.90
7016;DHT22;3548;48.402;9.990;2022-07-05T03:30:07;16.00;99.90
7016;DHT22;3548;48.402;9.990;2022-07-05T03:32:32;16.00;99.90
7016;DHT22;3548;48.402;9.990;2022-07-05T03:34:58;16.00;99.90
7016;DHT22;3548;48.402;9.990;2022-07-05T03:37:23;16.00;99.90
7016;DHT22;3548;48.402;9.990;2022-07-05T03:39:49;15.90;99.90
7016;DHT22;3548;48.402;9.990;2022-07-05T03:42:14;15.90;99.90
7016;DHT22;3548;48.402;9.990;2022-07-05T03:44:40;15.90;99.90
7016;DHT22;3548;48.402;9.990;2022-07-05T03:47:05;15.80;99.90
7016;DHT22;3548;48.402;9.990;2022-07-05T03:49:31;15.80;99.90
7016;DHT22;3548;48.402;9.990;2022-07-05T03:51:56;15.80;99.90
7016;DHT22;3548;48.402;9.990;2022-07-05T03:54:22;15.80;99.90
7016;DHT22;3548;48.402;9.990;2022-07-05T03:56:47;15.80;99.90
7016;DHT22;3548;48.402;9.990;2022-07-05T03:59:13;15.80;99.90
7016;DHT22;3548;48.402;9.990;2022-07-05T04:01:39;15.80;99.90
7016;DHT22;3548;48.402;9.990;2022-07-05T04:04:04;15.80;99.90
7016;DHT22;3548;48.402;9.990;2022-07-05T04:06:30;15.80;99.90
7016;DHT22;3548;48.402;9.990;2022-07-05T04:08:55;15.90;99.90
7016;DHT22;3548;48.402;9.990;2022-07-05T04:11:21;16.10;99.90
7016;DHT22;3548;48.402;9.990;2022-07-05T04:13:46;16.40;99.90
7016;DHT22;3548;48.402;9.990;2022-07-05T04:16:12;16.80;99.90
7016;DHT22;3548;48.402;9.990;2022-07-05T04:18:37;17.50;99.90
7016;DHT22;3548;48.402;9.990;2022-07-05T04:21:04;18.20;99.90
7016;DHT22;3548;48.402;9.990;2022-07-05T04:23:30;18.90;99.90
7016;DHT22;3548;48.402;9.990;2022-07-05T04:25:55;19.50;99.90
7016;DHT22;3548;48.402;9.990;2022-07-05T04:28:21;20.00;99.90
7016;DHT22;3548;48.402;9.990;2022-07-05T04:30:47;20.50;99.90
7016;DHT22;3548;48.402;9.990;2022-07-05T04:33:12;21.10;99.90
7016;DHT22;3548;48.402;9.990;2022-07-05T04:35:38;21.40;99.90
7016;DHT22;3548;48.402;9.990;2022-07-05T04:38:04;21.80;99.90
7016;DHT22;3548;48.402;9.990;2022-07-05T04:40:29;22.20;99.90
7016;DHT22;3548;48.402;9.990;2022-07-05T04:42:55;22.60;99.90
7016;DHT22;3548;48.402;9.990;2022-07-05T04:45:21;23.10;99.90
7016;DHT22;3548;48.402;9.990;2022-07-05T04:47:46;23.20;99.90
7016;DHT22;3548;48.402;9.990;2022-07-05T04:50:12;23.50;99.90
7016;DHT22;3548;48.402;9.990;2022-07-05T04:52:37;23.80;99.40
7016;DHT22;3548;48.402;9.990;2022-07-05T04:55:03;24.00;98.50
7016;DHT22;3548;48.402;9.990;2022-07-05T04:57:49;24.10;98.40
7016;DHT22;3548;48.402;9.990;2022-07-05T05:00:15;24.20;97.50
7016;DHT22;3548;48.402;9.990;2022-07-05T05:02:41;24.60;96.70
7016;DHT22;3548;48.402;9.990;2022-07-05T05:05:07;24.80;96.30
7016;DHT22;3548;48.402;9.990;2022-07-05T05:07:33;24.70;95.30
7016;DHT22;3548;48.402;9.990;2022-07-05T05:09:59;24.20;95.70
7016;DHT22;3548;48.402;9.990;2022-07-05T05:12:25;23.80;95.70
7016;DHT22;3548;48.402;9.990;2022-07-05T05:14:51;23.20;96.10
7016;DHT22;3548;48.402;9.990;2022-07-05T05:17:17;22.50;97.30
7016;DHT22;3548;48.402;9.990;2022-07-05T05:19:42;21.90;98.50
7016;DHT22;3548;48.402;9.990;2022-07-05T05:22:09;21.30;99.90
7016;DHT22;3548;48.402;9.990;2022-07-05T05:24:35;20.90;99.90
7016;DHT22;3548;48.402;9.990;2022-07-05T05:27:01;20.50;99.90
7016;DHT22;3548;48.402;9.990;2022-07-05T05:29:27;20.30;99.90
7016;DHT22;3548;48.402;9.990;2022-07-05T05:31:53;20.10;99.90
7016;DHT22;3548;48.402;9.990;2022-07-05T05:34:18;20.00;99.90
7016;DHT22;3548;48.402;9.990;2022-07-05T05:36:44;19.90;99.90
7016;DHT22;3548;48.402;9.990;2022-07-05T05:39:09;19.80;99.90
7016;DHT22;3548;48.402;9.990;2022-07-05T05:41:35;19.70;99.90
7016;DHT22;3548;48.402;9.990;2022-07-05T05:44:02;19.70;99.90
7016;DHT22;3548;48.402;9.990;2022-07-05T05:46:27;19.70;99.90
7016;DHT22;3548;48.402;9.990;2022-07-05T05:48:53;19.80;99.90
7016;DHT22;3548;48.402;9.990;2022-07-05T05:51:19;19.80;99.90
7016;DHT22;3548;48.402;9.990;2022-07-05T05:53:44;19.80;99.90
7016;DHT22;3548;48.402;9.990;2022-07-05T05:56:11;19.70;99.90
7016;DHT22;3548;48.402;9.990;2022-07-05T05:58:37;19.80;99.90
7016;DHT22;3548;48.402;9.990;2022-07-05T06:01:03;19.80;99.90
7016;DHT22;3548;48.402;9.990;2022-07-05T06:03:28;19.70;99.90
7016;DHT22;3548;48.402;9.990;2022-07-05T06:05:54;19.70;99.90
7016;DHT22;3548;48.402;9.990;2022-07-05T06:08:20;19.80;99.90
7016;DHT22;3548;48.402;9.990;2022-07-05T06:10:46;19.80;99.90
7016;DHT22;3548;48.402;9.990;2022-07-05T06:13:12;19.90;99.90
7016;DHT22;3548;48.402;9.990;2022-07-05T06:15:40;19.90;99.90
7016;DHT22;3548;48.402;9.990;2022-07-05T06:18:09;20.00;99.90
7016;DHT22;3548;48.402;9.990;2022-07-05T06:20:36;20.20;99.90
7016;DHT22;3548;48.402;9.990;2022-07-05T06:23:04;20.30;99.90
7016;DHT22;3548;48.402;9.990;2022-07-05T06:25:30;20.40;99.90
7016;DHT22;3548;48.402;9.990;2022-07-05T06:28:06;20.60;99.90
7016;DHT22;3548;48.402;9.990;2022-07-05T06:30:34;20.70;99.90
7016;DHT22;3548;48.402;9.990;2022-07-05T06:33:00;20.90;99.90
7016;DHT22;3548;48.402;9.990;2022-07-05T06:35:26;21.00;99.90
7016;DHT22;3548;48.402;9.990;2022-07-05T06:37:55;21.10;99.90
7016;DHT22;3548;48.402;9.990;2022-07-05T06:40:22;21.10;99.90
7016;DHT22;3548;48.402;9.990;2022-07-05T06:42:49;21.20;99.90
7016;DHT22;3548;48.402;9.990;2022-07-05T06:45:15;21.30;99.90
7016;DHT22;3548;48.402;9.990;2022-07-05T06:47:42;21.40;99.90
7016;DHT22;3548;48.402;9.990;2022-07-05T06:50:07;21.60;99.90
7016;DHT22;3548;48.402;9.990;2022-07-05T06:52:33;21.70;99.90
7016;DHT22;3548;48.402;9.990;2022-07-05T06:55:00;21.80;99.90
7016;DHT22;3548;48.402;9.990;2022-07-05T06:57:26;21.80;99.90
7016;DHT22;3548;48.402;9.990;2022-07-05T06:59:52;21.90;99.90
7016;DHT22;3548;48.402;9.990;2022-07-05T07:02:17;21.90;99.90
7016;DHT22;3548;48.402;9.990;2022-07-05T07:04:44;22.10;99.90
7016;DHT22;3548;48.402;9.990;2022-07-05T07:07:10;22.20;99.90
7016;DHT22;3548;48.402;9.990;2022-07-05T07:09:58;22.20;99.90
7016;DHT22;3548;48.402;9.990;2022-07-05T07:12:23;22.40;99.90
7016;DHT22;3548;48.402;9.990;2022-07-05T07:14:49;22.40;99.90
7016;DHT22;3548;48.402;9.990;2022-07-05T07:17:14;22.50;99.90
7016;DHT22;3548;48.402;9.990;2022-07-05T07:19:40;22.60;99.90
7016;DHT22;3548;48.402;9.990;2022-07-05T07:22:05;22.70;99.90
7016;DHT22;3548;48.402;9.990;2022-07-05T07:24:31;22.80;99.90
7016;DHT22;3548;48.402;9.990;2022-07-05T07:26:56;22.90;99.90
7016;DHT22;3548;48.402;9.990;2022-07-05T07:29:29;23.00;99.90
7016;DHT22;3548;48.402;9.990;2022-07-05T07:31:56;23.10;99.90
7016;DHT22;3548;48.402;9.990;2022-07-05T07:34:22;23.30;99.90
7016;DHT22;3548;48.402;9.990;2022-07-05T07:36:48;23.30;99.90
7016;DHT22;3548;48.402;9.990;2022-07-05T07:39:14;23.40;99.90
7016;DHT22;3548;48.402;9.990;2022-07-05T07:41:40;23.50;99.90
7016;DHT22;3548;48.402;9.990;2022-07-05T07:44:06;23.60;99.90
7016;DHT22;3548;48.402;9.990;2022-07-05T07:46:31;23.70;99.90
7016;DHT22;3548;48.402;9.990;2022-07-05T07:48:57;23.80;99.90
7016;DHT22;3548;48.402;9.990;2022-07-05T07:51:23;23.80;99.90
7016;DHT22;3548;48.402;9.990;2022-07-05T07:53:49;23.80;99.10
7016;DHT22;3548;48.402;9.990;2022-07-05T07:56:15;23.90;98.50
7016;DHT22;3548;48.402;9.990;2022-07-05T07:58:41;23.90;97.60
7016;DHT22;3548;48.402;9.990;2022-07-05T08:01:06;24.10;96.40
7016;DHT22;3548;48.402;9.990;2022-07-05T08:03:40;24.20;95.40
7016;DHT22;3548;48.402;9.990;2022-07-05T08:06:07;24.30;94.00
7016;DHT22;3548;48.402;9.990;2022-07-05T08:08:34;24.40;93.20
7016;DHT22;3548;48.402;9.990;2022-07-05T08:11:00;24.50;92.50
7016;DHT22;3548;48.402;9.990;2022-07-05T08:13:25;24.60;92.10
7016;DHT22;3548;48.402;9.990;2022-07-05T08:15:52;24.70;91.90
7016;DHT22;3548;48.402;9.990;2022-07-05T08:18:17;24.80;91.00
7016;DHT22;3548;48.402;9.990;2022-07-05T08:21:01;24.90;90.70
7016;DHT22;3548;48.402;9.990;2022-07-05T08:23:45;25.00;89.40
7016;DHT22;3548;48.402;9.990;2022-07-05T08:26:11;25.20;86.50
7016;DHT22;3548;48.402;9.990;2022-07-05T08:28:36;25.30;82.80
7016;DHT22;3548;48.402;9.990;2022-07-05T08:31:02;25.40;81.90
7016;DHT22;3548;48.402;9.990;2022-07-05T08:33:27;25.60;82.20
7016;DHT22;3548;48.402;9.990;2022-07-05T08:35:53;25.60;83.10
7016;DHT22;3548;48.402;9.990;2022-07-05T08:38:19;25.70;83.50
7016;DHT22;3548;48.402;9.990;2022-07-05T08:40:49;25.80;81.00
7016;DHT22;3548;48.402;9.990;2022-07-05T08:43:15;25.90;77.90
7016;DHT22;3548;48.402;9.990;2022-07-05T08:45:45;26.00;77.10
7016;DHT22;3548;48.402;9.990;2022-07-05T08:48:11;26.10;77.50
7016;DHT22;3548;48.402;9.990;2022-07-05T08:50:40;26.30;77.50
7016;DHT22;3548;48.402;9.990;2022-07-05T08:53:06;26.50;73.40
7016;DHT22;3548;48.402;9.990;2022-07-05T08:55:33;26.60;72.00
7016;DHT22;3548;48.402;9.990;2022-07-05T08:57:59;26.70;72.70
7016;DHT22;3548;48.402;9.990;2022-07-05T09:00:25;26.80;69.70
7016;DHT22;3548;48.402;9.990;2022-07-05T09:02:51;26.90;69.30
7016;DHT22;3548;48.402;9.990;2022-07-05T09:05:18;27.00;67.20
7016;DHT22;3548;48.402;9.990;2022-07-05T09:07:52;26.90;66.30
7016;DHT22;3548;48.402;9.990;2022-07-05T09:10:20;26.80;66.20
7016;DHT22;3548;48.402;9.990;2022-07-05T09:12:46;26.90;65.10
7016;DHT22;3548;48.402;9.990;2022-07-05T09:15:12;26.90;63.70
7016;DHT22;3548;48.402;9.990;2022-07-05T09:17:44;26.90;63.40
7016;DHT22;3548;48.402;9.990;2022-07-05T09:20:12;27.00;63.00
7016;DHT22;3548;48.402;9.990;2022-07-05T09:22:48;27.10;62.40
7016;DHT22;3548;48.402;9.990;2022-07-05T09:25:29;27.10;61.00
7016;DHT22;3548;48.402;9.990;2022-07-05T09:27:59;26.80;61.00
7016;DHT22;3548;48.402;9.990;2022-07-05T09:33:08;26.40;63.00
7016;DHT22;3548;48.402;9.990;2022-07-05T09:35:38;26.50;60.50
7016;DHT22;3548;48.402;9.990;2022-07-05T09:38:05;26.60;60.50
7016;DHT22;3548;48.402;9.990;2022-07-05T09:40:46;26.50;61.10
7016;DHT22;3548;48.402;9.990;2022-07-05T09:43:14;26.50;61.40
7016;DHT22;3548;48.402;9.990;2022-07-05T09:45:49;26.40;61.00
7016;DHT22;3548;48.402;9.990;2022-07-05T09:48:15;26.30;61.90
7016;DHT22;3548;48.402;9.990;2022-07-05T09:50:40;26.10;61.70
7016;DHT22;3548;48.402;9.990;2022-07-05T09:53:06;25.90;62.60
7016;DHT22;3548;48.402;9.990;2022-07-05T09:55:32;25.70;63.50
7016;DHT22;3548;48.402;9.990;2022-07-05T09:57:58;25.60;64.30
7016;DHT22;3548;48.402;9.990;2022-07-05T10:00:24;25.70;64.20
7016;DHT22;3548;48.402;9.990;2022-07-05T10:02:52;25.60;65.10
7016;DHT22;3548;48.402;9.990;2022-07-05T10:05:21;25.60;64.10
7016;DHT22;3548;48.402;9.990;2022-07-05T10:07:52;25.70;64.90
7016;DHT22;3548;48.402;9.990;2022-07-05T10:10:20;25.70;64.60
7016;DHT22;3548;48.402;9.990;2022-07-05T10:12:47;25.70;64.00
7016;DHT22;3548;48.402;9.990;2022-07-05T10:15:15;25.80;63.10
7016;DHT22;3548;48.402;9.990;2022-07-05T10:17:46;25.90;62.50
7016;DHT22;3548;48.402;9.990;2022-07-05T10:20:34;26.10;61.40
7016;DHT22;3548;48.402;9.990;2022-07-05T10:23:05;26.20;60.80
7016;DHT22;3548;48.402;9.990;2022-07-05T10:25:32;26.20;59.30
7016;DHT22;3548;48.402;9.990;2022-07-05T10:27:58;26.00;59.50
7016;DHT22;3548;48.402;9.990;2022-07-05T10:30:24;25.70;59.50
7016;DHT22;3548;48.402;9.990;2022-07-05T10:32:51;25.50;60.60
7016;DHT22;3548;48.402;9.990;2022-07-05T10:35:17;25.40;60.10
7016;DHT22;3548;48.402;9.990;2022-07-05T10:37:44;25.30;60.10
7016;DHT22;3548;48.402;9.990;2022-07-05T10:40:10;25.40;60.50
7016;DHT22;3548;48.402;9.990;2022-07-05T10:42:40;25.70;59.90
7016;DHT22;3548;48.402;9.990;2022-07-05T10:50:56;26.80;57.00
7016;DHT22;3548;48.402;9.990;2022-07-05T10:56:11;26.60;54.90
7016;DHT22;3548;48.402;9.990;2022-07-05T10:58:38;26.50;55.10
7016;DHT22;3548;48.402;9.990;2022-07-05T11:09:14;27.10;52.90
7016;DHT22;3548;48.402;9.990;2022-07-05T11:11:45;27.30;52.90
7016;DHT22;3548;48.402;9.990;2022-07-05T11:16:45;27.10;58.80
7016;DHT22;3548;48.402;9.990;2022-07-05T11:19:16;26.80;60.00
7016;DHT22;3548;48.402;9.990;2022-07-05T11:22:04;26.50;60.70
7016;DHT22;3548;48.402;9.990;2022-07-05T11:24:37;26.00;62.80
7016;DHT22;3548;48.402;9.990;2022-07-05T11:27:09;25.80;63.30
7016;DHT22;3548;48.402;9.990;2022-07-05T11:34:42;25.00;65.10
7016;DHT22;3548;48.402;9.990;2022-07-05T11:39:40;24.70;65.90
7016;DHT22;3548;48.402;9.990;2022-07-05T11:42:05;24.70;65.00
7016;DHT22;3548;48.402;9.990;2022-07-05T11:44:33;24.80;64.30
7016;DHT22;3548;48.402;9.990;2022-07-05T11:46:59;24.80;64.80
7016;DHT22;3548;48.402;9.990;2022-07-05T11:49:25;24.80;64.30
7016;DHT22;3548;48.402;9.990;2022-07-05T11:51:59;24.80;64.20
7016;DHT22;3548;48.402;9.990;2022-07-05T11:54:26;24.80;64.20
7016;DHT22;3548;48.402;9.990;2022-07-05T11:56:52;24.90;64.30
7016;DHT22;3548;48.402;9.990;2022-07-05T11:59:22;25.10;64.00
7016;DHT22;3548;48.402;9.990;2022-07-05T12:01:48;25.40;62.90
7016;DHT22;3548;48.402;9.990;2022-07-05T12:04:27;25.60;61.50
7016;DHT22;3548;48.402;9.990;2022-07-05T12:06:52;25.70;62.50
7016;DHT22;3548;48.402;9.990;2022-07-05T12:09:27;25.80;61.80
7016;DHT22;3548;48.402;9.990;2022-07-05T12:12:21;25.70;62.20
7016;DHT22;3548;48.402;9.990;2022-07-05T12:15:05;25.80;61.10
7016;DHT22;3548;48.402;9.990;2022-07-05T12:17:33;25.80;60.90
7016;DHT22;3548;48.402;9.990;2022-07-05T12:19:59;25.80;60.90
7016;DHT22;3548;48.402;9.990;2022-07-05T12:24:59;25.90;60.30
7016;DHT22;3548;48.402;9.990;2022-07-05T12:27:28;25.80;59.50
7016;DHT22;3548;48.402;9.990;2022-07-05T12:29:55;25.80;58.90
7016;DHT22;3548;48.402;9.990;2022-07-05T12:32:21;25.70;58.40
7016;DHT22;3548;48.402;9.990;2022-07-05T12:34:46;25.70;59.30
7016;DHT22;3548;48.402;9.990;2022-07-05T12:37:22;26.00;59.20
7016;DHT22;3548;48.402;9.990;2022-07-05T12:39:50;26.10;58.30
7016;DHT22;3548;48.402;9.990;2022-07-05T12:42:35;26.10;58.20
7016;DHT22;3548;48.402;9.990;2022-07-05T12:45:15;26.20;58.20
7016;DHT22;3548;48.402;9.990;2022-07-05T12:47:51;26.50;57.20
7016;DHT22;3548;48.402;9.990;2022-07-05T12:50:19;26.70;56.30
7016;DHT22;3548;48.402;9.990;2022-07-05T12:53:14;26.60;54.90
7016;DHT22;3548;48.402;9.990;2022-07-05T12:56:07;26.70;53.60
7016;DHT22;3548;48.402;9.990;2022-07-05T12:58:57;26.90;53.50
7016;DHT22;3548;48.402;9.990;2022-07-05T13:01:29;27.10;52.90
7016;DHT22;3548;48.402;9.990;2022-07-05T13:04:00;27.20;52.50
7016;DHT22;3548;48.402;9.990;2022-07-05T13:06:41;27.30;51.90
7016;DHT22;3548;48.402;9.990;2022-07-05T13:09:08;27.40;51.30
7016;DHT22;3548;48.402;9.990;2022-07-05T13:11:34;27.20;51.20
7016;DHT22;3548;48.402;9.990;2022-07-05T13:13:59;27.20;51.20
7016;DHT22;3548;48.402;9.990;2022-07-05T13:16:25;27.10;51.80
7016;DHT22;3548;48.402;9.990;2022-07-05T13:18:50;27.00;51.70
7016;DHT22;3548;48.402;9.990;2022-07-05T13:21:16;27.00;50.10
7016;DHT22;3548;48.402;9.990;2022-07-05T13:23:41;27.20;50.80
7016;DHT22;3548;48.402;9.990;2022-07-05T13:26:07;27.40;50.00
7016;DHT22;3548;48.402;9.990;2022-07-05T13:28:33;27.50;49.10
7016;DHT22;3548;48.402;9.990;2022-07-05T13:30:59;27.70;48.50
7016;DHT22;3548;48.402;9.990;2022-07-05T13:33:24;27.80;48.00
7016;DHT22;3548;48.402;9.990;2022-07-05T13:35:50;27.80;47.40
7016;DHT22;3548;48.402;9.990;2022-07-05T13:38:15;27.80;46.80
7016;DHT22;3548;48.402;9.990;2022-07-05T13:40:41;27.80;47.00
7016;DHT22;3548;48.402;9.990;2022-07-05T13:43:06;27.60;46.70
7016;DHT22;3548;48.402;9.990;2022-07-05T13:45:32;27.60;46.20
7016;DHT22;3548;48.402;9.990;2022-07-05T13:47:58;27.50;45.80
7016;DHT22;3548;48.402;9.990;2022-07-05T13:50:23;27.50;45.80
7016;DHT22;3548;48.402;9.990;2022-07-05T13:52:59;27.60;45.10
7016;DHT22;3548;48.402;9.990;2022-07-05T13:55:24;27.60;45.30
7016;DHT22;3548;48.402;9.990;2022-07-05T13:57:50;27.50;44.80
7016;DHT22;3548;48.402;9.990;2022-07-05T14:00:16;27.50;45.00
7016;DHT22;3548;48.402;9.990;2022-07-05T14:02:43;27.50;44.80
7016;DHT22;3548;48.402;9.990;2022-07-05T14:05:09;27.50;45.10
7016;DHT22;3548;48.402;9.990;2022-07-05T14:07:35;27.40;45.20
7016;DHT22;3548;48.402;9.990;2022-07-05T14:10:01;27.30;45.90
7016;DHT22;3548;48.402;9.990;2022-07-05T14:12:27;27.40;45.30
7016;DHT22;3548;48.402;9.990;2022-07-05T14:14:52;27.40;45.60
7016;DHT22;3548;48.402;9.990;2022-07-05T14:17:18;27.30;45.40
7016;DHT22;3548;48.402;9.990;2022-07-05T14:19:43;27.30;45.50
7016;DHT22;3548;48.402;9.990;2022-07-05T14:22:09;27.20;44.70
7016;DHT22;3548;48.402;9.990;2022-07-05T14:24:35;27.20;43.90
7016;DHT22;3548;48.402;9.990;2022-07-05T14:27:00;27.10;44.70
7016;DHT22;3548;48.402;9.990;2022-07-05T14:29:26;27.10;45.10
7016;DHT22;3548;48.402;9.990;2022-07-05T14:31:52;27.10;45.50
7016;DHT22;3548;48.402;9.990;2022-07-05T14:34:17;27.10;44.80
7016;DHT22;3548;48.402;9.990;2022-07-05T14:36:43;27.30;45.80
7016;DHT22;3548;48.402;9.990;2022-07-05T14:39:08;27.30;45.90
7016;DHT22;3548;48.402;9.990;2022-07-05T14:41:34;27.50;46.80
7016;DHT22;3548;48.402;9.990;2022-07-05T14:43:59;27.50;47.70
7016;DHT22;3548;48.402;9.990;2022-07-05T14:46:25;27.60;47.40
7016;DHT22;3548;48.402;9.990;2022-07-05T14:48:50;27.70;47.40
7016;DHT22;3548;48.402;9.990;2022-07-05T14:51:16;27.80;47.20
7016;DHT22;3548;48.402;9.990;2022-07-05T14:53:42;27.80;46.90
7016;DHT22;3548;48.402;9.990;2022-07-05T14:56:09;27.80;46.90
7016;DHT22;3548;48.402;9.990;2022-07-05T14:58:35;27.60;46.10
7016;DHT22;3548;48.402;9.990;2022-07-05T15:01:00;27.40;46.00
7016;DHT22;3548;48.402;9.990;2022-07-05T15:03:26;27.30;46.60
7016;DHT22;3548;48.402;9.990;2022-07-05T15:05:52;27.30;46.90
7016;DHT22;3548;48.402;9.990;2022-07-05T15:08:19;27.30;47.40
7016;DHT22;3548;48.402;9.990;2022-07-05T15:10:45;27.30;46.80
7016;DHT22;3548;48.402;9.990;2022-07-05T15:13:11;27.30;46.30
7016;DHT22;3548;48.402;9.990;2022-07-05T15:15:37;27.30;46.70
7016;DHT22;3548;48.402;9.990;2022-07-05T15:18:03;27.30;47.40
7016;DHT22;3548;48.402;9.990;2022-07-05T15:20:29;27.30;47.30
7016;DHT22;3548;48.402;9.990;2022-07-05T15:22:54;27.20;47.00
7016;DHT22;3548;48.402;9.990;2022-07-05T15:25:20;27.10;47.60
7016;DHT22;3548;48.402;9.990;2022-07-05T15:27:46;27.20;48.40
7016;DHT22;3548;48.402;9.990;2022-07-05T15:30:12;27.20;47.30
7016;DHT22;3548;48.402;9.990;2022-07-05T15:32:40;27.10;47.10
7016;DHT22;3548;48.402;9.990;2022-07-05T15:35:06;27.00;47.20
7016;DHT22;3548;48.402;9.990;2022-07-05T15:37:31;26.80;47.20
7016;DHT22;3548;48.402;9.990;2022-07-05T15:39:57;26.70;48.00
7016;DHT22;3548;48.402;9.990;2022-07-05T15:42:24;26.80;48.00
7016;DHT22;3548;48.402;9.990;2022-07-05T15:44:50;26.70;47.70
7016;DHT22;3548;48.402;9.990;2022-07-05T15:47:16;26.70;47.50
7016;DHT22;3548;48.402;9.990;2022-07-05T15:49:42;26.60;47.50
7016;DHT22;3548;48.402;9.990;2022-07-05T15:52:07;26.60;47.80
7016;DHT22;3548;48.402;9.990;2022-07-05T15:54:34;26.60;47.30
7016;DHT22;3548;48.402;9.990;2022-07-05T15:57:00;26.60;47.50
7016;DHT22;3548;48.402;9.990;2022-07-05T15:59:26;26.60;47.70
7016;DHT22;3548;48.402;9.990;2022-07-05T16:01:51;26.60;48.00
7016;DHT22;3548;48.402;9.990;2022-07-05T16:04:18;26.60;47.50
7016;DHT22;3548;48.402;9.990;2022-07-05T16:06:43;26.60;47.80
7016;DHT22;3548;48.402;9.990;2022-07-05T16:09:09;26.60;48.20
7016;DHT22;3548;48.402;9.990;2022-07-05T16:11:35;26.70;47.70
7016;DHT22;3548;48.402;9.990;2022-07-05T16:14:00;26.70;47.60
7016;DHT22;3548;48.402;9.990;2022-07-05T16:16:26;26.80;47.60
7016;DHT22;3548;48.402;9.990;2022-07-05T16:18:51;27.00;47.20
7016;DHT22;3548;48.402;9.990;2022-07-05T16:21:18;27.00;47.70
7016;DHT22;3548;48.402;9.990;2022-07-05T16:23:46;26.90;46.70
7016;DHT22;3548;48.402;9.990;2022-07-05T16:26:13;26.90;47.00
7016;DHT22;3548;48.402;9.990;2022-07-05T16:28:39;26.90;46.90
7016;DHT22;3548;48.402;9.990;2022-07-05T16:31:06;26.90;46.30
7016;DHT22;3548;48.402;9.990;2022-07-05T16:33:38;26.90;46.50